Maimara, Argentina
Current Conditions -  °F | °C
As of 11:00 AM on Monday 22 Dec 2014 (Local Time) from SASJ Reporting Station
Overcast Overcast  
Wind Chill: 61°   Ceiling: 10000
Heat Index: 61°   Visibility: 6mi
Dew Point: 54°   Wind: 10mph
Humidity: 77%   Direction: 200°SSW
Pressure: 30.18"   Gusts: NA
Location:  23.62°S, 65.4°W
Report Text: SASJ 221400Z 20009KT 150V250 9999 SCT020OVC100 16/12 Q1022
Loading
Personal Weather Stations






























Interactive Weather Map New forecast layout! Learn more

10-Day Weather Forecast

Advertisements
Track Severe Weather on mobile